createdAt,value
2018-01-05T00:00:00.505Z,1003.57
2018-01-05T00:01:00.142Z,1003.55
2018-01-05T00:01:59.635Z,1003.49
2018-01-05T00:02:59.995Z,1003.53
2018-01-05T00:04:00.283Z,1003.64
2018-01-05T00:04:59.591Z,1003.59
2018-01-05T00:06:00.209Z,1003.64
2018-01-05T00:06:59.650Z,1003.6
2018-01-05T00:08:00.030Z,1003.6
2018-01-05T00:09:00.398Z,1003.61
2018-01-05T00:09:59.995Z,1003.55
2018-01-05T00:10:59.485Z,1003.52
2018-01-05T00:11:59.721Z,1003.51
2018-01-05T00:13:00.145Z,1003.56
2018-01-05T00:13:59.700Z,1003.52
2018-01-05T00:14:59.977Z,1003.58
2018-01-05T00:16:00.226Z,1003.51
2018-01-05T00:19:05.353Z,1003.59
2018-01-05T00:19:59.664Z,1003.49
2018-01-05T00:21:00.117Z,1003.55
2018-01-05T00:21:59.709Z,1003.41
2018-01-05T00:22:59.951Z,1003.44
2018-01-05T00:24:00.153Z,1003.51
2018-01-05T00:25:00.389Z,1003.49
2018-01-05T00:25:59.599Z,1003.46
2018-01-05T00:26:59.863Z,1003.55
2018-01-05T00:28:00.090Z,1003.56
2018-01-05T00:29:00.239Z,1003.6
2018-01-05T00:29:59.542Z,1003.57
2018-01-05T00:30:59.856Z,1003.7
2018-01-05T00:32:00.117Z,1003.67
2018-01-05T00:32:59.623Z,1003.62
2018-01-05T00:34:00.031Z,1003.69
2018-01-05T00:35:00.264Z,1003.72
2018-01-05T00:36:00.257Z,1003.72
2018-01-05T00:37:00.408Z,1003.8
2018-01-05T00:37:59.803Z,1003.86
2018-01-05T00:39:00.093Z,1003.84
2018-01-05T00:40:00.407Z,1003.92
2018-01-05T00:40:59.746Z,1003.96
2018-01-05T00:41:59.982Z,1003.96
2018-01-05T00:43:00.102Z,1004.1
2018-01-05T00:44:00.680Z,1004.09
2018-01-05T00:45:00.129Z,1004.14
2018-01-05T00:45:59.681Z,1004.14
2018-01-05T00:47:00.056Z,1004.25
2018-01-05T00:48:00.423Z,1004.24
2018-01-05T00:48:59.836Z,1004.34
2018-01-05T00:50:00.119Z,1004.35
2018-01-05T00:50:59.760Z,1004.56
2018-01-05T00:52:00.151Z,1004.42
2018-01-05T00:53:00.451Z,1004.46
2018-01-05T00:54:00.036Z,1004.46
2018-01-05T00:55:00.577Z,1004.43
2018-01-05T00:55:59.911Z,1004.31
2018-01-05T00:57:00.139Z,1004.39
2018-01-05T00:58:00.309Z,1004.4
2018-01-05T00:58:59.507Z,1004.49
2018-01-05T01:00:00.048Z,1004.51
2018-01-05T01:01:00.690Z,1004.49
2018-01-05T01:02:00.162Z,1004.61
2018-01-05T01:03:00.659Z,1004.65
2018-01-05T01:03:59.924Z,1004.71
2018-01-05T01:05:00.473Z,1004.77
2018-01-05T01:06:00.712Z,1004.74
2018-01-05T01:07:00.095Z,1004.8
2018-01-05T01:08:00.437Z,1004.87
2018-01-05T01:09:00.692Z,1004.93
2018-01-05T01:09:59.902Z,1004.96
2018-01-05T01:11:00.778Z,1004.99
2018-01-05T01:12:00.085Z,1005.06
2018-01-05T01:13:00.333Z,1005.04
2018-01-05T01:14:00.681Z,1005.09
2018-01-05T01:15:00.120Z,1004.98
2018-01-05T01:16:00.409Z,1005.12
2018-01-05T01:17:00.772Z,1005.13
2018-01-05T01:18:00.048Z,1005.12
2018-01-05T01:19:00.455Z,1005.24
2018-01-05T01:19:59.842Z,1005.23
2018-01-05T01:21:00.112Z,1005.26
2018-01-05T01:22:00.325Z,1005.3
2018-01-05T01:23:00.518Z,1005.27
2018-01-05T01:24:00.728Z,1005.3
2018-01-05T01:25:00.088Z,1005.28
2018-01-05T01:26:00.732Z,1005.36
2018-01-05T01:27:00.000Z,1005.36
2018-01-05T01:28:00.054Z,1005.27
2018-01-05T01:29:00.289Z,1005.38
2018-01-05T01:30:00.744Z,1005.28
2018-01-05T01:31:00.132Z,1005.3
2018-01-05T01:32:00.554Z,1005.38
2018-01-05T01:32:59.895Z,1005.39
2018-01-05T01:34:00.313Z,1005.38
2018-01-05T01:35:00.583Z,1005.41
2018-01-05T01:35:59.984Z,1005.41
2018-01-05T01:37:00.225Z,1005.42
2018-01-05T01:38:00.401Z,1005.45
2018-01-05T01:39:00.573Z,1005.51
2018-01-05T01:41:23.958Z,1005.65
2018-01-05T01:42:00.339Z,1005.66
2018-01-05T01:42:59.765Z,1005.59
2018-01-05T01:44:00.150Z,1005.59
2018-01-05T01:45:00.432Z,1005.67
2018-01-05T01:46:00.554Z,1005.66
2018-01-05T01:47:00.064Z,1005.73
2018-01-05T01:48:00.379Z,1005.71
2018-01-05T01:48:59.837Z,1005.7
2018-01-05T01:50:00.132Z,1005.71
2018-01-05T01:51:00.394Z,1005.74
2018-01-05T01:52:00.699Z,1005.68
2018-01-05T01:52:59.987Z,1005.71
2018-01-05T01:54:00.188Z,1005.7
2018-01-05T01:55:00.442Z,1005.77
2018-01-05T01:55:59.812Z,1005.69
2018-01-05T01:57:00.152Z,1005.66
2018-01-05T01:57:59.849Z,1005.65
2018-01-05T01:59:00.187Z,1005.74
2018-01-05T02:00:00.393Z,1005.78
2018-01-05T02:01:00.781Z,1005.8
2018-01-05T02:02:00.292Z,1005.84
2018-01-05T02:03:00.799Z,1005.83
2018-01-05T02:04:00.226Z,1005.74
2018-01-05T02:05:00.568Z,1005.71
2018-01-05T02:05:59.800Z,1005.61
2018-01-05T02:06:59.981Z,1005.67
2018-01-05T02:08:00.113Z,1005.68
2018-01-05T02:09:00.606Z,1005.66
2018-01-05T02:10:00.029Z,1005.69
2018-01-05T02:11:00.447Z,1005.73
2018-01-05T02:12:00.558Z,1005.69
2018-01-05T02:12:59.739Z,1005.7
2018-01-05T02:14:00.204Z,1005.64
2018-01-05T02:15:00.572Z,1005.68
2018-01-05T02:16:00.005Z,1005.78
2018-01-05T02:17:00.408Z,1005.77
2018-01-05T02:17:59.838Z,1005.81
2018-01-05T02:19:00.095Z,1005.68
2018-01-05T02:20:00.525Z,1005.66
2018-01-05T02:20:59.881Z,1005.65
2018-01-05T02:22:00.103Z,1005.71
2018-01-05T02:23:00.363Z,1005.79
2018-01-05T02:24:00.566Z,1005.73
2018-01-05T02:25:00.603Z,1005.76
2018-01-05T02:25:59.905Z,1005.68
2018-01-05T02:27:00.516Z,1005.65
2018-01-05T02:28:00.749Z,1005.69
2018-01-05T02:29:00.032Z,1005.59
2018-01-05T02:30:00.363Z,1005.57
2018-01-05T02:30:59.753Z,1005.53
2018-01-05T02:31:59.952Z,1005.49
2018-01-05T02:33:00.292Z,1005.51
2018-01-05T02:34:00.767Z,1005.53
2018-01-05T02:35:02.064Z,1005.51
2018-01-05T02:36:00.286Z,1005.53
2018-01-05T02:37:00.702Z,1005.51
2018-01-05T02:38:00.232Z,1005.55
2018-01-05T02:39:00.522Z,1005.57
2018-01-05T02:40:00.856Z,1005.47
2018-01-05T02:41:00.534Z,1005.4
2018-01-05T02:42:00.885Z,1005.42
2018-01-05T02:43:00.320Z,1005.45
2018-01-05T02:44:00.660Z,1005.46
2018-01-05T02:45:00.975Z,1005.46
2018-01-05T02:46:00.378Z,1005.43
2018-01-05T02:47:00.668Z,1005.37
2018-01-05T02:49:23.749Z,1005.33
2018-01-05T02:50:00.121Z,1005.31
2018-01-05T02:51:00.583Z,1005.27
2018-01-05T02:52:00.126Z,1005.22
2018-01-05T02:53:00.095Z,1005.17
2018-01-05T02:54:00.250Z,1005.11
2018-01-05T02:55:00.526Z,1005.16
2018-01-05T02:56:00.653Z,1005.11
2018-01-05T02:56:59.905Z,1005.05
2018-01-05T02:57:59.981Z,1005.03
2018-01-05T02:59:00.062Z,1005.05
2018-01-05T03:00:00.436Z,1005.08
2018-01-05T03:01:00.897Z,1005.04
2018-01-05T03:02:00.693Z,1005.07
2018-01-05T03:03:00.146Z,1005.1
2018-01-05T03:04:00.539Z,1005.12
2018-01-05T03:04:59.792Z,1005.18
2018-01-05T03:06:00.117Z,1005.22
2018-01-05T03:07:00.520Z,1005.2
2018-01-05T03:07:59.786Z,1005.25
2018-01-05T03:09:00.015Z,1005.25
2018-01-05T03:10:00.304Z,1005.29
2018-01-05T03:10:59.588Z,1005.27
2018-01-05T03:11:59.723Z,1005.24
2018-01-05T03:12:59.722Z,1005.15
2018-01-05T03:14:00.060Z,1005.15
2018-01-05T03:15:00.243Z,1005.12
2018-01-05T03:16:00.483Z,1005.11
2018-01-05T03:16:59.786Z,1005.17
2018-01-05T03:18:00.092Z,1005.13
2018-01-05T03:19:00.648Z,1005.08
2018-01-05T03:20:00.398Z,1005.05
2018-01-05T03:20:59.903Z,1005.06
2018-01-05T03:22:00.260Z,1005.1
2018-01-05T03:23:00.557Z,1005.08
2018-01-05T03:24:00.200Z,1005.1
2018-01-05T03:24:59.638Z,1005.14
2018-01-05T03:25:59.856Z,1005.18
2018-01-05T03:27:00.176Z,1005.15
2018-01-05T03:28:00.503Z,1005.16
2018-01-05T03:28:59.802Z,1005.2
2018-01-05T03:30:00.128Z,1005.19
2018-01-05T03:30:59.681Z,1005.23
2018-01-05T03:31:59.902Z,1005.25
2018-01-05T03:33:00.137Z,1005.27
2018-01-05T03:33:59.384Z,1005.19
2018-01-05T03:34:59.913Z,1005.19
2018-01-05T03:36:00.104Z,1005.16
2018-01-05T03:36:59.273Z,1005.12
2018-01-05T03:37:59.481Z,1005.13
2018-01-05T03:38:59.743Z,1005.17
2018-01-05T03:40:00.097Z,1005.15
2018-01-05T03:40:59.421Z,1005.09
2018-01-05T03:41:59.722Z,1005.07
2018-01-05T03:43:00.212Z,1005.04
2018-01-05T03:43:59.532Z,1005.02
2018-01-05T03:44:59.824Z,1005.01
2018-01-05T03:45:59.340Z,1004.98
2018-01-05T03:46:59.708Z,1004.94
2018-01-05T03:48:00.065Z,1004.98
2018-01-05T03:48:59.416Z,1005.03
2018-01-05T03:49:59.631Z,1005.04
2018-01-05T03:51:00.205Z,1004.99
2018-01-05T03:51:59.586Z,1004.9
2018-01-05T03:53:00.003Z,1004.89
2018-01-05T03:53:59.389Z,1004.87
2018-01-05T03:54:59.563Z,1004.84
2018-01-05T03:55:59.676Z,1004.88
2018-01-05T03:57:00.100Z,1004.85
2018-01-05T03:57:59.288Z,1004.87
2018-01-05T03:58:59.337Z,1004.76
2018-01-05T03:59:59.666Z,1004.71
2018-01-05T04:00:59.930Z,1004.72
2018-01-05T04:02:00.116Z,1004.67
2018-01-05T04:02:59.447Z,1004.65
2018-01-05T04:03:59.871Z,1004.64
2018-01-05T04:05:00.331Z,1004.63
2018-01-05T04:06:01.081Z,1004.67
2018-01-05T04:07:00.578Z,1004.66
2018-01-05T04:07:59.914Z,1004.68
2018-01-05T04:09:00.029Z,1004.76
2018-01-05T04:10:00.343Z,1004.75
2018-01-05T04:11:00.631Z,1004.69
2018-01-05T04:11:59.945Z,1004.65
2018-01-05T04:13:00.246Z,1004.65
2018-01-05T04:14:00.344Z,1004.66
2018-01-05T04:15:00.439Z,1004.65
2018-01-05T04:16:00.639Z,1004.67
2018-01-05T04:16:59.811Z,1004.67
2018-01-05T04:18:00.150Z,1004.69
2018-01-05T04:19:00.406Z,1004.62
2018-01-05T04:20:00.602Z,1004.68
2018-01-05T04:21:00.365Z,1004.68
2018-01-05T04:22:00.527Z,1004.71
2018-01-05T04:23:00.836Z,1004.68
2018-01-05T04:24:00.196Z,1004.68
2018-01-05T04:25:00.520Z,1004.66
2018-01-05T04:26:00.732Z,1004.62
2018-01-05T04:26:59.996Z,1004.62
2018-01-05T04:28:00.195Z,1004.57
2018-01-05T04:29:01.163Z,1004.56
2018-01-05T04:30:00.491Z,1004.58
2018-01-05T04:31:00.728Z,1004.59
2018-01-05T04:32:00.028Z,1004.57
2018-01-05T04:33:00.337Z,1004.51
2018-01-05T04:34:00.716Z,1004.49
2018-01-05T04:35:00.119Z,1004.55
2018-01-05T04:36:00.322Z,1004.47
2018-01-05T04:37:00.514Z,1004.49
2018-01-05T04:37:59.843Z,1004.4
2018-01-05T04:39:00.248Z,1004.31
2018-01-05T04:39:59.834Z,1004.42
2018-01-05T04:41:00.137Z,1004.42
2018-01-05T04:42:00.360Z,1004.4
2018-01-05T04:43:00.542Z,1004.45
2018-01-05T04:43:59.653Z,1004.4
2018-01-05T04:44:59.895Z,1004.37
2018-01-05T04:46:00.269Z,1004.35
2018-01-05T04:46:59.752Z,1004.28
2018-01-05T04:48:00.041Z,1004.22
2018-01-05T04:49:00.480Z,1004.28
2018-01-05T04:49:59.931Z,1004.18
2018-01-05T04:50:59.599Z,1004.23
2018-01-05T04:51:59.738Z,1004.17
2018-01-05T04:53:00.133Z,1004.2
2018-01-05T04:54:00.558Z,1004.2
2018-01-05T04:54:59.816Z,1004.18
2018-01-05T04:56:01.277Z,1004.13
2018-01-05T04:57:01.695Z,1004.2
2018-01-05T04:58:00.162Z,1004.2
2018-01-05T04:59:00.547Z,1004.14
2018-01-05T04:59:59.707Z,1004.12
2018-01-05T05:00:59.969Z,1004.14
2018-01-05T05:02:00.308Z,1004.06
2018-01-05T05:03:00.547Z,1004.06
2018-01-05T05:03:59.776Z,1004.08
2018-01-05T05:05:00.378Z,1004.1
2018-01-05T05:05:59.599Z,1004.08
2018-01-05T05:06:59.890Z,1004.07
2018-01-05T05:07:59.355Z,1004.02
2018-01-05T05:08:59.408Z,1004.07
2018-01-05T05:09:59.534Z,1004.05
2018-01-05T05:10:59.475Z,1004.02
2018-01-05T05:11:59.405Z,1004.02
2018-01-05T05:12:59.671Z,1003.93
2018-01-05T05:13:59.925Z,1003.95
2018-01-05T05:15:01.209Z,1003.99
2018-01-05T05:15:59.387Z,1003.99
2018-01-05T05:16:59.558Z,1003.97
2018-01-05T05:17:59.751Z,1003.96
2018-01-05T05:18:59.119Z,1003.87
2018-01-05T05:19:59.362Z,1003.86
2018-01-05T05:20:59.720Z,1003.93
2018-01-05T05:21:59.948Z,1003.95
2018-01-05T05:22:59.494Z,1003.96
2018-01-05T05:23:59.761Z,1003.93
2018-01-05T05:24:59.889Z,1003.89
2018-01-05T05:25:59.071Z,1003.96
2018-01-05T05:26:59.517Z,1003.95
2018-01-05T05:27:59.876Z,1003.98
2018-01-05T05:28:59.240Z,1003.99
2018-01-05T05:29:59.626Z,1003.93
2018-01-05T05:30:59.954Z,1003.87
2018-01-05T05:31:59.213Z,1003.88
2018-01-05T05:32:59.529Z,1003.86
2018-01-05T05:34:00.095Z,1003.87
2018-01-05T05:34:59.298Z,1003.93
2018-01-05T05:35:59.629Z,1003.88
2018-01-05T05:36:59.658Z,1003.89
2018-01-05T05:37:59.719Z,1003.91
2018-01-05T05:38:59.878Z,1003.91
2018-01-05T05:40:00.061Z,1003.94
2018-01-05T05:41:00.518Z,1003.9
2018-01-05T05:41:59.801Z,1003.89
2018-01-05T05:43:00.113Z,1003.87
2018-01-05T05:44:00.326Z,1003.88
2018-01-05T05:44:59.658Z,1003.93
2018-01-05T05:45:59.665Z,1003.96
2018-01-05T05:46:59.782Z,1003.91
2018-01-05T05:47:59.977Z,1003.93
2018-01-05T05:49:00.237Z,1003.94
2018-01-05T05:50:00.761Z,1003.95
2018-01-05T05:51:00.080Z,1003.92
2018-01-05T05:52:00.406Z,1003.86
2018-01-05T05:52:59.530Z,1003.84
2018-01-05T05:53:59.666Z,1003.82
2018-01-05T05:54:59.785Z,1003.88
2018-01-05T05:56:00.271Z,1003.87
2018-01-05T05:56:59.544Z,1003.9
2018-01-05T05:57:59.681Z,1003.83
2018-01-05T05:59:00.093Z,1003.8
2018-01-05T06:00:00.367Z,1003.82
2018-01-05T06:01:00.554Z,1003.76
2018-01-05T06:01:59.873Z,1003.76
2018-01-05T06:03:00.276Z,1003.78
2018-01-05T06:03:59.557Z,1003.73
2018-01-05T06:04:59.754Z,1003.74
2018-01-05T06:06:00.031Z,1003.72
2018-01-05T06:07:00.379Z,1003.72
2018-01-05T06:08:00.592Z,1003.69
2018-01-05T06:09:01.028Z,1003.7
2018-01-05T06:10:00.313Z,1003.75
2018-01-05T06:11:00.557Z,1003.73
2018-01-05T06:12:00.712Z,1003.76
2018-01-05T06:13:00.966Z,1003.8
2018-01-05T06:14:00.256Z,1003.73
2018-01-05T06:15:00.517Z,1003.73
2018-01-05T06:16:00.726Z,1003.76
2018-01-05T06:17:00.899Z,1003.79
2018-01-05T06:18:00.449Z,1003.79
2018-01-05T06:19:00.786Z,1003.79
2018-01-05T06:20:00.084Z,1003.72
2018-01-05T06:21:00.390Z,1003.75
2018-01-05T06:22:00.689Z,1003.8
2018-01-05T06:23:00.955Z,1003.72
2018-01-05T06:24:00.074Z,1003.68
2018-01-05T06:25:00.275Z,1003.75
2018-01-05T06:26:00.593Z,1003.65
2018-01-05T06:27:00.927Z,1003.63
2018-01-05T06:28:00.266Z,1003.61
2018-01-05T06:29:01.019Z,1003.57
2018-01-05T06:30:00.467Z,1003.57
2018-01-05T06:32:02.370Z,1003.56
2018-01-05T06:33:00.735Z,1003.57
2018-01-05T06:34:00.202Z,1003.56
2018-01-05T06:35:00.600Z,1003.5
2018-01-05T06:36:01.053Z,1003.51
2018-01-05T06:37:00.009Z,1003.47
2018-01-05T06:37:59.190Z,1003.51
2018-01-05T06:38:59.486Z,1003.44
2018-01-05T06:39:59.945Z,1003.43
2018-01-05T06:40:59.183Z,1003.4
2018-01-05T06:41:59.259Z,1003.36
2018-01-05T06:42:59.503Z,1003.37
2018-01-05T06:43:59.771Z,1003.39
2018-01-05T06:45:00.049Z,1003.44
2018-01-05T06:45:59.417Z,1003.5
2018-01-05T06:46:59.600Z,1003.55
2018-01-05T06:47:59.819Z,1003.54
2018-01-05T06:48:59.083Z,1003.68
2018-01-05T06:49:59.365Z,1003.68
2018-01-05T06:51:00.021Z,1003.58
2018-01-05T06:51:59.301Z,1003.58
2018-01-05T06:52:59.654Z,1003.62
2018-01-05T06:54:00.003Z,1003.63
2018-01-05T06:54:59.395Z,1003.64
2018-01-05T06:55:59.745Z,1003.66
2018-01-05T06:57:00.002Z,1003.72
2018-01-05T06:57:59.273Z,1003.72
2018-01-05T06:58:59.628Z,1003.7
2018-01-05T06:59:59.998Z,1003.74
2018-01-05T07:00:59.698Z,1003.71
2018-01-05T07:02:00.057Z,1003.75
2018-01-05T07:02:59.288Z,1003.73
2018-01-05T07:03:59.758Z,1003.72
2018-01-05T07:04:59.055Z,1003.77
2018-01-05T07:05:59.484Z,1003.8
2018-01-05T07:06:59.933Z,1003.75
2018-01-05T07:08:00.257Z,1003.72
2018-01-05T07:09:01.336Z,1003.81
2018-01-05T07:10:00.524Z,1003.76
2018-01-05T07:11:00.074Z,1003.72
2018-01-05T07:12:00.854Z,1003.69
2018-01-05T07:12:59.928Z,1003.73
2018-01-05T07:14:00.094Z,1003.7
2018-01-05T07:15:00.457Z,1003.71
2018-01-05T07:16:00.883Z,1003.73
2018-01-05T07:17:00.307Z,1003.7
2018-01-05T07:18:00.818Z,1003.68
2018-01-05T07:19:00.329Z,1003.69
2018-01-05T07:20:00.776Z,1003.71
2018-01-05T07:21:00.201Z,1003.66
2018-01-05T07:22:00.660Z,1003.61
2018-01-05T07:23:00.831Z,1003.61
2018-01-05T07:24:00.323Z,1003.58
2018-01-05T07:25:00.764Z,1003.52
2018-01-05T07:26:00.131Z,1003.51
2018-01-05T07:27:00.463Z,1003.46
2018-01-05T07:28:00.862Z,1003.42
2018-01-05T07:29:00.165Z,1003.44
2018-01-05T07:30:00.611Z,1003.4
2018-01-05T07:30:59.921Z,1003.43
2018-01-05T07:32:00.196Z,1003.46
2018-01-05T07:33:00.562Z,1003.53
2018-01-05T07:34:00.652Z,1003.56
2018-01-05T07:35:00.106Z,1003.58
2018-01-05T07:36:00.715Z,1003.58
2018-01-05T07:37:00.025Z,1003.5
2018-01-05T07:38:00.306Z,1003.5
2018-01-05T07:39:00.673Z,1003.54
2018-01-05T07:40:01.153Z,1003.45
2018-01-05T07:41:00.709Z,1003.41
2018-01-05T07:42:00.859Z,1003.4
2018-01-05T07:43:00.979Z,1003.39
2018-01-05T07:44:00.245Z,1003.35
2018-01-05T07:45:00.620Z,1003.38
2018-01-05T07:46:00.247Z,1003.43
2018-01-05T07:47:01.012Z,1003.46
2018-01-05T07:48:00.409Z,1003.48
2018-01-05T07:49:00.471Z,1003.54
2018-01-05T07:50:00.613Z,1003.5
2018-01-05T07:51:00.995Z,1003.59
2018-01-05T07:52:00.403Z,1003.55
2018-01-05T07:53:00.790Z,1003.59
2018-01-05T07:59:04.514Z,1003.65
2018-01-05T08:00:00.925Z,1003.62
2018-01-05T08:01:00.369Z,1003.59
2018-01-05T08:02:00.528Z,1003.56
2018-01-05T08:03:00.768Z,1003.66
2018-01-05T08:04:00.257Z,1003.62
2018-01-05T08:05:00.935Z,1003.72
2018-01-05T08:06:00.318Z,1003.69
2018-01-05T08:07:00.623Z,1003.78
2018-01-05T08:08:00.115Z,1003.83
2018-01-05T08:08:59.768Z,1003.82
2018-01-05T08:10:00.326Z,1003.81
2018-01-05T08:10:59.899Z,1003.79
2018-01-05T08:12:00.266Z,1003.81
2018-01-05T08:13:00.605Z,1003.75
2018-01-05T08:14:00.030Z,1003.81
2018-01-05T08:15:00.326Z,1003.71
2018-01-05T08:15:59.715Z,1003.65
2018-01-05T08:17:00.199Z,1003.6
2018-01-05T08:18:00.500Z,1003.63
2018-01-05T08:18:59.715Z,1003.59
2018-01-05T08:20:00.417Z,1003.52
2018-01-05T08:20:59.828Z,1003.58
2018-01-05T08:22:00.245Z,1003.53
2018-01-05T08:23:00.576Z,1003.48
2018-01-05T08:23:59.943Z,1003.55
2018-01-05T08:25:00.335Z,1003.44
2018-01-05T08:26:00.514Z,1003.49
2018-01-05T08:27:00.106Z,1003.49
2018-01-05T08:28:00.356Z,1003.48
2018-01-05T08:29:00.513Z,1003.51
2018-01-05T08:29:59.930Z,1003.46
2018-01-05T08:31:00.409Z,1003.49
2018-01-05T08:31:59.756Z,1003.52
2018-01-05T08:33:00.018Z,1003.53
2018-01-05T08:34:00.269Z,1003.47
2018-01-05T08:34:59.821Z,1003.39
2018-01-05T08:36:00.174Z,1003.38
2018-01-05T08:37:00.433Z,1003.46
2018-01-05T08:38:00.132Z,1003.53
2018-01-05T08:39:00.524Z,1003.52
2018-01-05T08:40:00.815Z,1003.55
2018-01-05T08:41:00.290Z,1003.59
2018-01-05T08:42:01.070Z,1003.59
2018-01-05T08:43:00.621Z,1003.61
2018-01-05T08:44:00.919Z,1003.57
2018-01-05T08:45:00.120Z,1003.64
2018-01-05T08:46:00.305Z,1003.65
2018-01-05T08:47:00.496Z,1003.7
2018-01-05T08:48:00.849Z,1003.73
2018-01-05T08:49:00.313Z,1003.77
2018-01-05T08:50:00.598Z,1003.71
2018-01-05T08:51:00.906Z,1003.75
2018-01-05T08:52:00.257Z,1003.77
2018-01-05T08:53:00.693Z,1003.66
2018-01-05T08:54:00.130Z,1003.74
2018-01-05T08:55:00.353Z,1003.72
2018-01-05T08:56:00.575Z,1003.68
2018-01-05T08:57:00.947Z,1003.68
2018-01-05T08:58:00.325Z,1003.7
2018-01-05T08:59:00.705Z,1003.72
2018-01-05T09:00:00.200Z,1003.73
2018-01-05T09:01:00.506Z,1003.68
2018-01-05T09:02:00.880Z,1003.71
2018-01-05T09:03:00.177Z,1003.72
2018-01-05T09:04:00.510Z,1003.74
2018-01-05T09:05:01.133Z,1003.75
2018-01-05T09:06:00.573Z,1003.66
2018-01-05T09:07:01.001Z,1003.7
2018-01-05T09:08:00.689Z,1003.73
2018-01-05T09:09:00.073Z,1003.68
2018-01-05T09:10:00.590Z,1003.78
2018-01-05T09:11:00.299Z,1003.79
2018-01-05T09:11:59.668Z,1003.71
2018-01-05T09:12:59.860Z,1003.71
2018-01-05T09:13:59.960Z,1003.69
2018-01-05T09:15:00.464Z,1003.57
2018-01-05T09:15:59.833Z,1003.68
2018-01-05T09:17:00.094Z,1003.65
2018-01-05T09:18:00.568Z,1003.61
2018-01-05T09:18:59.943Z,1003.6
2018-01-05T09:20:00.085Z,1003.59
2018-01-05T09:21:00.662Z,1003.66
2018-01-05T09:22:00.245Z,1003.67
2018-01-05T09:23:00.548Z,1003.61
2018-01-05T09:23:59.824Z,1003.68
2018-01-05T09:25:00.055Z,1003.64
2018-01-05T09:26:00.287Z,1003.62
2018-01-05T09:27:00.526Z,1003.61
2018-01-05T09:28:00.058Z,1003.63
2018-01-05T09:29:00.477Z,1003.6
2018-01-05T09:29:59.743Z,1003.63
2018-01-05T09:31:00.225Z,1003.64
2018-01-05T09:31:59.718Z,1003.62
2018-01-05T09:33:00.407Z,1003.63
2018-01-05T09:34:00.655Z,1003.66
2018-01-05T09:35:00.008Z,1003.63
2018-01-05T09:36:00.303Z,1003.6
2018-01-05T09:37:00.426Z,1003.61
2018-01-05T09:37:59.889Z,1003.63
2018-01-05T09:39:00.517Z,1003.61
2018-01-05T09:39:59.936Z,1003.63
2018-01-05T09:41:00.248Z,1003.63
2018-01-05T09:41:59.419Z,1003.64
2018-01-05T09:42:59.747Z,1003.69
2018-01-05T09:43:59.334Z,1003.61
2018-01-05T09:44:59.631Z,1003.66
2018-01-05T09:46:00.165Z,1003.64
2018-01-05T09:46:59.546Z,1003.64
2018-01-05T09:47:59.783Z,1003.69
2018-01-05T09:49:00.147Z,1003.67
2018-01-05T09:49:59.642Z,1003.67
2018-01-05T09:50:59.853Z,1003.72
2018-01-05T09:51:59.975Z,1003.64
2018-01-05T09:53:00.049Z,1003.69
2018-01-05T09:54:00.234Z,1003.7
2018-01-05T09:54:59.885Z,1003.67
2018-01-05T09:56:00.272Z,1003.67
2018-01-05T09:56:59.355Z,1003.61
2018-01-05T09:57:59.587Z,1003.56
2018-01-05T09:59:00.015Z,1003.58
2018-01-05T10:00:00.047Z,1003.62
2018-01-05T10:01:00.327Z,1003.59
2018-01-05T10:01:59.672Z,1003.58
2018-01-05T10:02:59.946Z,1003.54
2018-01-05T10:04:00.189Z,1003.53
2018-01-05T10:04:59.560Z,1003.5
2018-01-05T10:06:00.175Z,1003.57
2018-01-05T10:06:59.491Z,1003.55
2018-01-05T10:07:59.671Z,1003.63
2018-01-05T10:08:59.832Z,1003.54
2018-01-05T10:10:00.185Z,1003.6
2018-01-05T10:11:00.785Z,1003.55
2018-01-05T10:12:01.052Z,1003.57
2018-01-05T10:13:00.329Z,1003.5
2018-01-05T10:14:00.726Z,1003.47
2018-01-05T10:15:00.950Z,1003.46
2018-01-05T10:16:00.047Z,1003.39
2018-01-05T10:17:00.280Z,1003.41
2018-01-05T10:18:00.491Z,1003.38
2018-01-05T10:19:00.930Z,1003.4
2018-01-05T10:20:00.217Z,1003.4
2018-01-05T10:21:00.529Z,1003.42
2018-01-05T10:22:00.745Z,1003.38
2018-01-05T10:23:00.970Z,1003.32
2018-01-05T10:24:00.188Z,1003.37
2018-01-05T10:25:04.121Z,1003.44
2018-01-05T10:26:00.491Z,1003.41
2018-01-05T10:27:01.185Z,1003.37
2018-01-05T10:28:00.798Z,1003.35
2018-01-05T10:29:00.123Z,1003.33
2018-01-05T10:30:00.451Z,1003.38
2018-01-05T10:31:00.994Z,1003.38
2018-01-05T10:32:00.585Z,1003.23
2018-01-05T10:33:01.017Z,1003.21
2018-01-05T10:34:00.406Z,1003.3
2018-01-05T10:35:00.583Z,1003.24
2018-01-05T10:36:00.923Z,1003.21
2018-01-05T10:37:00.421Z,1003.16
2018-01-05T10:38:01.054Z,1003.2
2018-01-05T10:39:00.592Z,1003.21
2018-01-05T10:40:01.057Z,1003.2
2018-01-05T10:41:00.494Z,1003.2
2018-01-05T10:42:00.896Z,1003.2
2018-01-05T10:43:00.185Z,1003.18
2018-01-05T10:44:00.603Z,1003.19
2018-01-05T10:45:00.248Z,1003.24
2018-01-05T10:46:00.758Z,1003.23
2018-01-05T10:47:00.059Z,1003.2
2018-01-05T10:48:00.336Z,1003.19
2018-01-05T10:49:00.612Z,1003.23
2018-01-05T10:50:00.088Z,1003.25
2018-01-05T10:51:00.568Z,1003.21
2018-01-05T10:52:00.124Z,1003.22
2018-01-05T10:53:00.537Z,1003.2
2018-01-05T10:54:00.912Z,1003.23
2018-01-05T10:55:00.280Z,1003.18
2018-01-05T10:56:00.768Z,1003.16
2018-01-05T10:56:59.927Z,1003.15
2018-01-05T10:58:00.307Z,1003.11
2018-01-05T10:59:06.363Z,1003
2018-01-05T11:00:00.065Z,1003.07
2018-01-05T11:01:00.535Z,1003.08
2018-01-05T11:02:00.792Z,1003.05
2018-01-05T11:03:00.149Z,1003
2018-01-05T11:04:00.476Z,1002.94
2018-01-05T11:05:00.867Z,1002.94
2018-01-05T11:06:00.220Z,1002.91
2018-01-05T11:07:00.639Z,1002.91
2018-01-05T11:08:00.022Z,1002.93
2018-01-05T11:09:00.249Z,1002.91
2018-01-05T11:10:00.864Z,1002.89
2018-01-05T11:11:00.502Z,1002.96
2018-01-05T11:12:00.081Z,1002.92
2018-01-05T11:12:59.373Z,1002.94
2018-01-05T11:13:59.543Z,1002.94
2018-01-05T11:14:59.900Z,1002.91
2018-01-05T11:16:00.585Z,1002.94
2018-01-05T11:17:00.078Z,1002.93
2018-01-05T11:17:59.550Z,1002.84
2018-01-05T11:18:59.850Z,1002.85
2018-01-05T11:20:00.150Z,1002.85
2018-01-05T11:20:59.447Z,1002.77
2018-01-05T11:22:00.118Z,1002.74
2018-01-05T11:23:00.297Z,1002.77
2018-01-05T11:24:00.072Z,1002.79
2018-01-05T11:25:00.543Z,1002.76
2018-01-05T11:26:05.473Z,1002.77
2018-01-05T11:26:59.750Z,1002.73
2018-01-05T11:28:00.421Z,1002.79
2018-01-05T11:28:59.751Z,1002.75
2018-01-05T11:30:00.111Z,1002.76
2018-01-05T11:30:59.764Z,1002.75
2018-01-05T11:32:00.092Z,1002.74
2018-01-05T11:32:59.563Z,1002.71
2018-01-05T11:34:00.095Z,1002.67
2018-01-05T11:34:59.550Z,1002.74
2018-01-05T11:35:59.787Z,1002.7
2018-01-05T11:37:00.071Z,1002.67
2018-01-05T11:38:01.216Z,1002.64
2018-01-05T11:38:59.524Z,1002.61
2018-01-05T11:39:59.748Z,1002.65
2018-01-05T11:41:00.228Z,1002.63
2018-01-05T11:41:59.574Z,1002.73
2018-01-05T11:42:59.991Z,1002.73
2018-01-05T11:44:00.417Z,1002.7
2018-01-05T11:44:59.935Z,1002.73
2018-01-05T11:46:00.350Z,1002.72
2018-01-05T11:47:00.488Z,1002.75
2018-01-05T11:47:59.966Z,1002.69
2018-01-05T11:49:00.575Z,1002.68
2018-01-05T11:49:59.767Z,1002.72
2018-01-05T11:51:00.288Z,1002.66
2018-01-05T11:51:59.805Z,1002.71
2018-01-05T11:53:00.299Z,1002.64
2018-01-05T11:53:59.973Z,1002.64
2018-01-05T11:55:03.155Z,1002.6
2018-01-05T11:56:00.567Z,1002.59
2018-01-05T11:57:00.064Z,1002.64
2018-01-05T11:58:00.469Z,1002.61
2018-01-05T11:58:59.895Z,1002.6
2018-01-05T12:00:00.415Z,1002.66
2018-01-05T12:00:59.923Z,1002.65
2018-01-05T12:02:00.570Z,1002.62
2018-01-05T12:02:59.872Z,1002.63
2018-01-05T12:04:00.192Z,1002.6
2018-01-05T12:05:00.224Z,1002.61
2018-01-05T12:06:00.673Z,1002.6
2018-01-05T12:07:00.245Z,1002.61
2018-01-05T12:07:59.762Z,1002.61
2018-01-05T12:09:00.124Z,1002.63
2018-01-05T12:10:00.408Z,1002.69
2018-01-05T12:10:59.799Z,1002.64
2018-01-05T12:12:00.295Z,1002.67
2018-01-05T12:12:59.594Z,1002.64
2018-01-05T12:14:00.113Z,1002.63
2018-01-05T12:14:59.827Z,1002.6
2018-01-05T12:15:59.603Z,1002.61
2018-01-05T12:16:59.812Z,1002.57
2018-01-05T12:18:00.193Z,1002.54